sensor_id;sensor_type;location;lat;lon;timestamp;temperature;humidity
22114;DHT22;11223;49.968;9.062;2023-05-14T00:00:49;10.30;99.90
22114;DHT22;11223;49.968;9.062;2023-05-14T00:03:14;10.30;99.90
22114;DHT22;11223;49.968;9.062;2023-05-14T00:05:40;10.30;99.90
22114;DHT22;11223;49.968;9.062;2023-05-14T00:08:05;10.40;99.90
22114;DHT22;11223;49.968;9.062;2023-05-14T00:10:31;10.40;99.90
22114;DHT22;11223;49.968;9.062;2023-05-14T00:12:57;10.40;99.90
22114;DHT22;11223;49.968;9.062;2023-05-14T00:15:22;10.40;99.90
22114;DHT22;11223;49.968;9.062;2023-05-14T00:17:48;10.40;99.90
22114;DHT22;11223;49.968;9.062;2023-05-14T00:20:13;10.40;99.90
22114;DHT22;11223;49.968;9.062;2023-05-14T00:22:39;10.50;99.90
22114;DHT22;11223;49.968;9.062;2023-05-14T00:25:06;10.40;99.90
22114;DHT22;11223;49.968;9.062;2023-05-14T00:27:32;10.40;99.90
22114;DHT22;11223;49.968;9.062;2023-05-14T00:29:58;10.40;99.90
22114;DHT22;11223;49.968;9.062;2023-05-14T00:32:23;10.40;99.90
22114;DHT22;11223;49.968;9.062;2023-05-14T00:34:49;10.30;99.90
22114;DHT22;11223;49.968;9.062;2023-05-14T00:37:15;10.30;99.90
22114;DHT22;11223;49.968;9.062;2023-05-14T00:39:40;10.30;99.90
22114;DHT22;11223;49.968;9.062;2023-05-14T00:42:06;10.20;99.90
22114;DHT22;11223;49.968;9.062;2023-05-14T00:44:32;10.20;99.90
22114;DHT22;11223;49.968;9.062;2023-05-14T00:46:58;10.10;99.90
22114;DHT22;11223;49.968;9.062;2023-05-14T00:49:24;10.10;99.90
22114;DHT22;11223;49.968;9.062;2023-05-14T00:51:50;10.00;99.90
22114;DHT22;11223;49.968;9.062;2023-05-14T00:54:16;10.00;99.90
22114;DHT22;11223;49.968;9.062;2023-05-14T00:56:44;10.00;99.90
22114;DHT22;11223;49.968;9.062;2023-05-14T00:59:10;10.00;99.90
22114;DHT22;11223;49.968;9.062;2023-05-14T01:01:36;9.90;99.90
22114;DHT22;11223;49.968;9.062;2023-05-14T01:04:02;9.90;99.90
22114;DHT22;11223;49.968;9.062;2023-05-14T01:12:18;9.80;99.90
22114;DHT22;11223;49.968;9.062;2023-05-14T01:14:58;9.80;99.90
22114;DHT22;11223;49.968;9.062;2023-05-14T01:17:28;9.80;99.90
22114;DHT22;11223;49.968;9.062;2023-05-14T01:19:56;9.80;99.90
22114;DHT22;11223;49.968;9.062;2023-05-14T01:22:22;9.80;99.90
22114;DHT22;11223;49.968;9.062;2023-05-14T01:24:48;9.80;99.90
22114;DHT22;11223;49.968;9.062;2023-05-14T01:27:24;9.70;99.90
22114;DHT22;11223;49.968;9.062;2023-05-14T01:30:36;9.60;99.90
22114;DHT22;11223;49.968;9.062;2023-05-14T01:33:05;9.60;99.90
22114;DHT22;11223;49.968;9.062;2023-05-14T01:35:32;9.60;99.90
22114;DHT22;11223;49.968;9.062;2023-05-14T01:38:00;9.50;99.90
22114;DHT22;11223;49.968;9.062;2023-05-14T01:40:26;9.50;99.90
22114;DHT22;11223;49.968;9.062;2023-05-14T01:42:52;9.50;99.90
22114;DHT22;11223;49.968;9.062;2023-05-14T01:45:19;9.50;99.90
22114;DHT22;11223;49.968;9.062;2023-05-14T01:47:52;9.40;99.90
22114;DHT22;11223;49.968;9.062;2023-05-14T01:50:17;9.40;99.90
22114;DHT22;11223;49.968;9.062;2023-05-14T01:52:43;9.40;99.90
22114;DHT22;11223;49.968;9.062;2023-05-14T01:55:09;9.40;99.90
22114;DHT22;11223;49.968;9.062;2023-05-14T01:57:35;9.40;99.90
22114;DHT22;11223;49.968;9.062;2023-05-14T02:00:01;9.30;99.90
22114;DHT22;11223;49.968;9.062;2023-05-14T02:02:28;9.30;99.90
22114;DHT22;11223;49.968;9.062;2023-05-14T02:04:53;9.30;99.90
22114;DHT22;11223;49.968;9.062;2023-05-14T02:07:19;9.30;99.90
22114;DHT22;11223;49.968;9.062;2023-05-14T02:09:45;9.20;99.90
22114;DHT22;11223;49.968;9.062;2023-05-14T02:12:10;9.20;99.90
22114;DHT22;11223;49.968;9.062;2023-05-14T02:14:36;9.10;99.90
22114;DHT22;11223;49.968;9.062;2023-05-14T02:17:02;9.10;99.90
22114;DHT22;11223;49.968;9.062;2023-05-14T02:19:28;9.00;99.90
22114;DHT22;11223;49.968;9.062;2023-05-14T02:21:54;9.00;99.90
22114;DHT22;11223;49.968;9.062;2023-05-14T02:24:20;9.00;99.90
22114;DHT22;11223;49.968;9.062;2023-05-14T02:26:46;9.00;99.90
22114;DHT22;11223;49.968;9.062;2023-05-14T02:29:12;9.00;99.90
22114;DHT22;11223;49.968;9.062;2023-05-14T02:31:37;9.00;99.90
22114;DHT22;11223;49.968;9.062;2023-05-14T02:34:04;8.90;99.90
22114;DHT22;11223;49.968;9.062;2023-05-14T02:36:33;8.90;99.90
22114;DHT22;11223;49.968;9.062;2023-05-14T02:38:59;8.90;99.90
22114;DHT22;11223;49.968;9.062;2023-05-14T02:41:28;8.90;99.90
22114;DHT22;11223;49.968;9.062;2023-05-14T02:43:54;8.80;99.90
22114;DHT22;11223;49.968;9.062;2023-05-14T02:46:20;8.80;99.90
22114;DHT22;11223;49.968;9.062;2023-05-14T02:48:45;8.80;99.90
22114;DHT22;11223;49.968;9.062;2023-05-14T02:51:11;8.70;99.90
22114;DHT22;11223;49.968;9.062;2023-05-14T02:53:37;8.70;99.90
22114;DHT22;11223;49.968;9.062;2023-05-14T02:56:02;8.70;99.90
22114;DHT22;11223;49.968;9.062;2023-05-14T02:58:28;8.60;99.90
22114;DHT22;11223;49.968;9.062;2023-05-14T03:00:54;8.60;99.90
22114;DHT22;11223;49.968;9.062;2023-05-14T03:03:20;8.60;99.90
22114;DHT22;11223;49.968;9.062;2023-05-14T03:05:45;8.60;99.90
22114;DHT22;11223;49.968;9.062;2023-05-14T03:08:11;8.60;99.90
22114;DHT22;11223;49.968;9.062;2023-05-14T03:10:36;8.60;99.90
22114;DHT22;11223;49.968;9.062;2023-05-14T03:13:02;8.60;99.90
22114;DHT22;11223;49.968;9.062;2023-05-14T03:15:28;8.60;99.90
22114;DHT22;11223;49.968;9.062;2023-05-14T03:17:53;8.50;99.90
22114;DHT22;11223;49.968;9.062;2023-05-14T03:20:19;8.50;99.90
22114;DHT22;11223;49.968;9.062;2023-05-14T03:22:45;8.50;99.90
22114;DHT22;11223;49.968;9.062;2023-05-14T03:25:10;8.50;99.90
22114;DHT22;11223;49.968;9.062;2023-05-14T03:27:36;8.50;99.90
22114;DHT22;11223;49.968;9.062;2023-05-14T03:30:02;8.40;99.90
22114;DHT22;11223;49.968;9.062;2023-05-14T03:32:27;8.40;99.90
22114;DHT22;11223;49.968;9.062;2023-05-14T03:34:53;8.40;99.90
22114;DHT22;11223;49.968;9.062;2023-05-14T03:37:20;8.40;99.90
22114;DHT22;11223;49.968;9.062;2023-05-14T03:39:45;8.40;99.90
22114;DHT22;11223;49.968;9.062;2023-05-14T03:42:11;8.30;99.90
22114;DHT22;11223;49.968;9.062;2023-05-14T03:44:36;8.20;99.90
22114;DHT22;11223;49.968;9.062;2023-05-14T03:47:02;8.20;99.90
22114;DHT22;11223;49.968;9.062;2023-05-14T03:49:27;8.20;99.90
22114;DHT22;11223;49.968;9.062;2023-05-14T03:51:53;8.20;99.90
22114;DHT22;11223;49.968;9.062;2023-05-14T03:54:18;8.20;99.90
22114;DHT22;11223;49.968;9.062;2023-05-14T03:56:44;8.20;99.90
22114;DHT22;11223;49.968;9.062;2023-05-14T03:59:10;8.20;99.90
22114;DHT22;11223;49.968;9.062;2023-05-14T04:01:35;8.30;99.90
22114;DHT22;11223;49.968;9.062;2023-05-14T04:04:01;8.30;99.90
22114;DHT22;11223;49.968;9.062;2023-05-14T04:06:27;8.30;99.90
22114;DHT22;11223;49.968;9.062;2023-05-14T04:08:52;8.30;99.90
22114;DHT22;11223;49.968;9.062;2023-05-14T04:11:18;8.40;99.90
22114;DHT22;11223;49.968;9.062;2023-05-14T04:13:43;8.40;99.90
22114;DHT22;11223;49.968;9.062;2023-05-14T04:16:09;8.40;99.90
22114;DHT22;11223;49.968;9.062;2023-05-14T04:18:34;8.40;99.90
22114;DHT22;11223;49.968;9.062;2023-05-14T04:21:01;8.40;99.90
22114;DHT22;11223;49.968;9.062;2023-05-14T04:23:27;8.50;99.90
22114;DHT22;11223;49.968;9.062;2023-05-14T04:25:52;8.50;99.90
22114;DHT22;11223;49.968;9.062;2023-05-14T04:28:18;8.50;99.90
22114;DHT22;11223;49.968;9.062;2023-05-14T04:30:44;8.50;99.90
22114;DHT22;11223;49.968;9.062;2023-05-14T04:33:10;8.60;99.90
22114;DHT22;11223;49.968;9.062;2023-05-14T04:35:35;8.60;99.90
22114;DHT22;11223;49.968;9.062;2023-05-14T04:38:01;8.60;99.90
22114;DHT22;11223;49.968;9.062;2023-05-14T04:40:27;8.60;99.90
22114;DHT22;11223;49.968;9.062;2023-05-14T04:42:52;8.60;99.90
22114;DHT22;11223;49.968;9.062;2023-05-14T04:45:18;8.60;99.90
22114;DHT22;11223;49.968;9.062;2023-05-14T04:47:50;8.60;99.90
22114;DHT22;11223;49.968;9.062;2023-05-14T04:50:16;8.60;99.90
22114;DHT22;11223;49.968;9.062;2023-05-14T04:52:42;8.60;99.90
22114;DHT22;11223;49.968;9.062;2023-05-14T04:55:08;8.60;99.90
22114;DHT22;11223;49.968;9.062;2023-05-14T04:57:33;8.60;99.90
22114;DHT22;11223;49.968;9.062;2023-05-14T04:59:59;8.60;99.90
22114;DHT22;11223;49.968;9.062;2023-05-14T05:02:25;8.60;99.90
22114;DHT22;11223;49.968;9.062;2023-05-14T05:04:50;8.60;99.90
22114;DHT22;11223;49.968;9.062;2023-05-14T05:07:16;8.70;99.90
22114;DHT22;11223;49.968;9.062;2023-05-14T05:09:42;8.70;99.90
22114;DHT22;11223;49.968;9.062;2023-05-14T05:12:08;8.80;99.90
22114;DHT22;11223;49.968;9.062;2023-05-14T05:14:33;8.90;99.90
22114;DHT22;11223;49.968;9.062;2023-05-14T05:16:59;9.00;99.90
22114;DHT22;11223;49.968;9.062;2023-05-14T05:19:24;9.10;99.90
22114;DHT22;11223;49.968;9.062;2023-05-14T05:21:50;9.20;99.90
22114;DHT22;11223;49.968;9.062;2023-05-14T05:24:16;9.30;99.90
22114;DHT22;11223;49.968;9.062;2023-05-14T05:26:41;9.40;99.90
22114;DHT22;11223;49.968;9.062;2023-05-14T05:29:07;9.50;99.90
22114;DHT22;11223;49.968;9.062;2023-05-14T05:31:32;9.60;99.90
22114;DHT22;11223;49.968;9.062;2023-05-14T05:33:59;9.60;99.90
22114;DHT22;11223;49.968;9.062;2023-05-14T05:36:24;9.70;99.90
22114;DHT22;11223;49.968;9.062;2023-05-14T05:38:50;9.80;99.90
22114;DHT22;11223;49.968;9.062;2023-05-14T05:41:15;10.00;99.90
22114;DHT22;11223;49.968;9.062;2023-05-14T05:43:41;10.10;99.90
22114;DHT22;11223;49.968;9.062;2023-05-14T05:46:06;10.20;99.90
22114;DHT22;11223;49.968;9.062;2023-05-14T05:48:32;10.30;99.90
22114;DHT22;11223;49.968;9.062;2023-05-14T05:50:58;10.30;99.90
22114;DHT22;11223;49.968;9.062;2023-05-14T05:53:23;10.40;99.90
22114;DHT22;11223;49.968;9.062;2023-05-14T05:55:49;10.50;99.90
22114;DHT22;11223;49.968;9.062;2023-05-14T05:58:18;10.60;99.90
22114;DHT22;11223;49.968;9.062;2023-05-14T06:00:44;10.70;99.90
22114;DHT22;11223;49.968;9.062;2023-05-14T06:03:10;10.80;99.90
22114;DHT22;11223;49.968;9.062;2023-05-14T06:05:36;10.80;99.90
22114;DHT22;11223;49.968;9.062;2023-05-14T06:08:01;11.00;99.90
22114;DHT22;11223;49.968;9.062;2023-05-14T06:10:27;11.10;99.90
22114;DHT22;11223;49.968;9.062;2023-05-14T06:12:53;11.20;99.90
22114;DHT22;11223;49.968;9.062;2023-05-14T06:15:19;11.30;99.90
22114;DHT22;11223;49.968;9.062;2023-05-14T06:17:44;11.40;99.90
22114;DHT22;11223;49.968;9.062;2023-05-14T06:20:10;11.60;99.90
22114;DHT22;11223;49.968;9.062;2023-05-14T06:22:36;11.70;99.90
22114;DHT22;11223;49.968;9.062;2023-05-14T06:25:02;11.80;99.90
22114;DHT22;11223;49.968;9.062;2023-05-14T06:27:28;12.00;99.90
22114;DHT22;11223;49.968;9.062;2023-05-14T06:29:54;12.20;99.90
22114;DHT22;11223;49.968;9.062;2023-05-14T06:32:19;12.40;99.90
22114;DHT22;11223;49.968;9.062;2023-05-14T06:34:45;12.60;99.90
22114;DHT22;11223;49.968;9.062;2023-05-14T06:37:11;12.80;99.90
22114;DHT22;11223;49.968;9.062;2023-05-14T06:39:37;12.90;99.90
22114;DHT22;11223;49.968;9.062;2023-05-14T06:42:03;13.00;99.90
22114;DHT22;11223;49.968;9.062;2023-05-14T06:44:29;13.00;99.90
22114;DHT22;11223;49.968;9.062;2023-05-14T06:46:54;13.10;99.90
22114;DHT22;11223;49.968;9.062;2023-05-14T06:49:20;13.10;99.90
22114;DHT22;11223;49.968;9.062;2023-05-14T06:51:46;13.20;99.90
22114;DHT22;11223;49.968;9.062;2023-05-14T06:54:11;13.20;99.90
22114;DHT22;11223;49.968;9.062;2023-05-14T06:56:37;13.20;99.90
22114;DHT22;11223;49.968;9.062;2023-05-14T06:59:03;13.30;99.90
22114;DHT22;11223;49.968;9.062;2023-05-14T07:01:28;13.40;99.90
22114;DHT22;11223;49.968;9.062;2023-05-14T07:03:54;13.40;99.90
22114;DHT22;11223;49.968;9.062;2023-05-14T07:06:20;13.50;99.90
22114;DHT22;11223;49.968;9.062;2023-05-14T07:08:46;13.50;99.90
22114;DHT22;11223;49.968;9.062;2023-05-14T07:11:12;13.60;99.90
22114;DHT22;11223;49.968;9.062;2023-05-14T07:13:38;13.70;99.90
22114;DHT22;11223;49.968;9.062;2023-05-14T07:16:04;13.90;99.90
22114;DHT22;11223;49.968;9.062;2023-05-14T07:18:30;14.10;99.90
22114;DHT22;11223;49.968;9.062;2023-05-14T07:20:56;14.30;99.90
22114;DHT22;11223;49.968;9.062;2023-05-14T07:23:21;14.50;99.90
22114;DHT22;11223;49.968;9.062;2023-05-14T07:25:47;14.60;99.90
22114;DHT22;11223;49.968;9.062;2023-05-14T07:28:12;14.60;99.90
22114;DHT22;11223;49.968;9.062;2023-05-14T07:30:38;14.70;99.90
22114;DHT22;11223;49.968;9.062;2023-05-14T07:33:04;14.90;99.90
22114;DHT22;11223;49.968;9.062;2023-05-14T07:35:29;15.00;99.90
22114;DHT22;11223;49.968;9.062;2023-05-14T07:37:55;15.20;99.90
22114;DHT22;11223;49.968;9.062;2023-05-14T07:40:20;15.40;99.90
22114;DHT22;11223;49.968;9.062;2023-05-14T07:42:46;15.50;99.90
22114;DHT22;11223;49.968;9.062;2023-05-14T07:45:12;15.60;99.90
22114;DHT22;11223;49.968;9.062;2023-05-14T07:47:38;15.70;99.90
22114;DHT22;11223;49.968;9.062;2023-05-14T07:50:05;15.80;99.90
22114;DHT22;11223;49.968;9.062;2023-05-14T07:52:31;16.00;99.90
22114;DHT22;11223;49.968;9.062;2023-05-14T07:54:56;16.00;99.90
22114;DHT22;11223;49.968;9.062;2023-05-14T07:57:22;16.10;99.90
22114;DHT22;11223;49.968;9.062;2023-05-14T07:59:47;16.20;99.90
22114;DHT22;11223;49.968;9.062;2023-05-14T08:02:13;16.30;99.90
22114;DHT22;11223;49.968;9.062;2023-05-14T08:04:40;16.50;99.90
22114;DHT22;11223;49.968;9.062;2023-05-14T08:07:06;16.50;99.90
22114;DHT22;11223;49.968;9.062;2023-05-14T08:09:33;16.60;99.90
22114;DHT22;11223;49.968;9.062;2023-05-14T08:11:58;16.60;99.90
22114;DHT22;11223;49.968;9.062;2023-05-14T08:14:24;16.70;99.90
22114;DHT22;11223;49.968;9.062;2023-05-14T08:16:50;16.80;99.90
22114;DHT22;11223;49.968;9.062;2023-05-14T08:19:15;17.00;99.90
22114;DHT22;11223;49.968;9.062;2023-05-14T08:21:41;17.20;99.90
22114;DHT22;11223;49.968;9.062;2023-05-14T08:24:07;17.30;99.90
22114;DHT22;11223;49.968;9.062;2023-05-14T08:26:32;17.50;99.90
22114;DHT22;11223;49.968;9.062;2023-05-14T08:28:58;17.50;99.90
22114;DHT22;11223;49.968;9.062;2023-05-14T08:31:23;17.60;99.90
22114;DHT22;11223;49.968;9.062;2023-05-14T08:33:49;17.70;99.90
22114;DHT22;11223;49.968;9.062;2023-05-14T08:36:15;17.70;99.90
22114;DHT22;11223;49.968;9.062;2023-05-14T08:38:40;17.80;99.90
22114;DHT22;11223;49.968;9.062;2023-05-14T08:41:07;17.90;99.90
22114;DHT22;11223;49.968;9.062;2023-05-14T08:43:49;18.00;99.90
22114;DHT22;11223;49.968;9.062;2023-05-14T08:46:19;18.10;99.90
22114;DHT22;11223;49.968;9.062;2023-05-14T08:48:47;18.30;99.90
22114;DHT22;11223;49.968;9.062;2023-05-14T08:51:14;18.40;99.90
22114;DHT22;11223;49.968;9.062;2023-05-14T08:53:39;18.50;99.90
22114;DHT22;11223;49.968;9.062;2023-05-14T08:56:07;18.50;99.90
22114;DHT22;11223;49.968;9.062;2023-05-14T08:58:33;18.60;99.90
22114;DHT22;11223;49.968;9.062;2023-05-14T09:00:58;18.70;99.90
22114;DHT22;11223;49.968;9.062;2023-05-14T09:03:24;18.80;99.90
22114;DHT22;11223;49.968;9.062;2023-05-14T09:05:51;18.90;99.90
22114;DHT22;11223;49.968;9.062;2023-05-14T09:08:16;19.00;99.90
22114;DHT22;11223;49.968;9.062;2023-05-14T09:10:42;19.10;99.90
22114;DHT22;11223;49.968;9.062;2023-05-14T09:13:08;19.10;99.90
22114;DHT22;11223;49.968;9.062;2023-05-14T09:15:36;19.10;99.90
22114;DHT22;11223;49.968;9.062;2023-05-14T09:18:04;19.00;99.90
22114;DHT22;11223;49.968;9.062;2023-05-14T09:20:30;19.20;99.90
22114;DHT22;11223;49.968;9.062;2023-05-14T09:22:57;19.40;99.90
22114;DHT22;11223;49.968;9.062;2023-05-14T09:25:30;19.60;99.90
22114;DHT22;11223;49.968;9.062;2023-05-14T09:27:56;19.60;99.90
22114;DHT22;11223;49.968;9.062;2023-05-14T09:30:23;19.40;99.90
22114;DHT22;11223;49.968;9.062;2023-05-14T09:32:52;19.10;99.90
22114;DHT22;11223;49.968;9.062;2023-05-14T09:35:19;19.00;99.90
22114;DHT22;11223;49.968;9.062;2023-05-14T09:37:47;18.90;99.90
22114;DHT22;11223;49.968;9.062;2023-05-14T09:40:13;19.00;99.90
22114;DHT22;11223;49.968;9.062;2023-05-14T09:42:39;18.90;99.90
22114;DHT22;11223;49.968;9.062;2023-05-14T09:45:07;18.90;99.90
22114;DHT22;11223;49.968;9.062;2023-05-14T09:47:33;18.90;99.90
22114;DHT22;11223;49.968;9.062;2023-05-14T09:49:58;18.70;99.90
22114;DHT22;11223;49.968;9.062;2023-05-14T09:52:24;18.50;99.90
22114;DHT22;11223;49.968;9.062;2023-05-14T09:54:53;18.30;99.90
22114;DHT22;11223;49.968;9.062;2023-05-14T09:57:19;18.10;99.90
22114;DHT22;11223;49.968;9.062;2023-05-14T09:59:45;17.90;99.90
22114;DHT22;11223;49.968;9.062;2023-05-14T10:02:23;17.90;99.90
22114;DHT22;11223;49.968;9.062;2023-05-14T10:04:52;17.80;99.90
22114;DHT22;11223;49.968;9.062;2023-05-14T10:07:21;17.80;99.90
22114;DHT22;11223;49.968;9.062;2023-05-14T10:09:47;17.80;99.90
22114;DHT22;11223;49.968;9.062;2023-05-14T10:12:15;17.80;99.90
22114;DHT22;11223;49.968;9.062;2023-05-14T10:14:47;17.80;99.90
22114;DHT22;11223;49.968;9.062;2023-05-14T10:17:20;17.70;99.90
22114;DHT22;11223;49.968;9.062;2023-05-14T10:19:56;17.70;99.90
22114;DHT22;11223;49.968;9.062;2023-05-14T10:22:26;17.70;99.90
22114;DHT22;11223;49.968;9.062;2023-05-14T10:24:53;17.80;99.90
22114;DHT22;11223;49.968;9.062;2023-05-14T10:27:22;17.80;99.90
22114;DHT22;11223;49.968;9.062;2023-05-14T10:29:52;17.80;99.90
22114;DHT22;11223;49.968;9.062;2023-05-14T10:32:20;17.90;99.90
22114;DHT22;11223;49.968;9.062;2023-05-14T10:34:46;18.00;99.90
22114;DHT22;11223;49.968;9.062;2023-05-14T10:37:19;18.10;99.90
22114;DHT22;11223;49.968;9.062;2023-05-14T10:40:00;18.00;99.90
22114;DHT22;11223;49.968;9.062;2023-05-14T10:45:04;18.10;99.90
22114;DHT22;11223;49.968;9.062;2023-05-14T10:47:32;18.20;99.90
22114;DHT22;11223;49.968;9.062;2023-05-14T10:50:01;18.20;99.90
22114;DHT22;11223;49.968;9.062;2023-05-14T10:52:28;18.20;99.90
22114;DHT22;11223;49.968;9.062;2023-05-14T10:54:56;18.10;99.90
22114;DHT22;11223;49.968;9.062;2023-05-14T10:57:24;18.10;99.90
22114;DHT22;11223;49.968;9.062;2023-05-14T11:00:00;18.00;99.90
22114;DHT22;11223;49.968;9.062;2023-05-14T11:02:28;17.80;99.90
22114;DHT22;11223;49.968;9.062;2023-05-14T11:05:11;17.70;99.90
22114;DHT22;11223;49.968;9.062;2023-05-14T11:10:09;17.50;99.90
22114;DHT22;11223;49.968;9.062;2023-05-14T11:12:37;17.40;99.90
22114;DHT22;11223;49.968;9.062;2023-05-14T11:15:07;17.20;99.90
22114;DHT22;11223;49.968;9.062;2023-05-14T11:17:37;17.10;99.90
22114;DHT22;11223;49.968;9.062;2023-05-14T11:20:04;17.00;99.90
22114;DHT22;11223;49.968;9.062;2023-05-14T11:22:30;16.90;99.90
22114;DHT22;11223;49.968;9.062;2023-05-14T11:24:56;16.80;99.90
22114;DHT22;11223;49.968;9.062;2023-05-14T11:27:22;16.80;99.90
22114;DHT22;11223;49.968;9.062;2023-05-14T11:29:51;16.80;99.90
22114;DHT22;11223;49.968;9.062;2023-05-14T11:32:18;16.70;99.90
22114;DHT22;11223;49.968;9.062;2023-05-14T11:34:44;16.70;99.90
22114;DHT22;11223;49.968;9.062;2023-05-14T11:37:11;16.70;99.90
22114;DHT22;11223;49.968;9.062;2023-05-14T11:39:38;16.70;99.90
22114;DHT22;11223;49.968;9.062;2023-05-14T11:42:09;16.80;99.90
22114;DHT22;11223;49.968;9.062;2023-05-14T11:44:37;16.80;99.90
22114;DHT22;11223;49.968;9.062;2023-05-14T11:47:03;16.80;99.90
22114;DHT22;11223;49.968;9.062;2023-05-14T11:49:29;16.90;99.90
22114;DHT22;11223;49.968;9.062;2023-05-14T11:52:00;17.00;99.90
22114;DHT22;11223;49.968;9.062;2023-05-14T11:54:27;17.00;99.90
22114;DHT22;11223;49.968;9.062;2023-05-14T11:56:54;17.10;99.90
22114;DHT22;11223;49.968;9.062;2023-05-14T11:59:21;17.00;99.90
22114;DHT22;11223;49.968;9.062;2023-05-14T12:01:48;17.00;99.90
22114;DHT22;11223;49.968;9.062;2023-05-14T12:04:14;16.90;99.90
22114;DHT22;11223;49.968;9.062;2023-05-14T12:06:39;16.90;99.90
22114;DHT22;11223;49.968;9.062;2023-05-14T12:09:05;16.80;99.90
22114;DHT22;11223;49.968;9.062;2023-05-14T12:11:32;16.80;99.90
22114;DHT22;11223;49.968;9.062;2023-05-14T12:13:58;16.70;99.90
22114;DHT22;11223;49.968;9.062;2023-05-14T12:16:29;16.60;99.90
22114;DHT22;11223;49.968;9.062;2023-05-14T12:18:59;16.60;99.90
22114;DHT22;11223;49.968;9.062;2023-05-14T12:21:26;16.70;99.90
22114;DHT22;11223;49.968;9.062;2023-05-14T12:23:58;16.70;99.90
22114;DHT22;11223;49.968;9.062;2023-05-14T12:26:26;16.90;99.90
22114;DHT22;11223;49.968;9.062;2023-05-14T12:29:02;17.00;99.90
22114;DHT22;11223;49.968;9.062;2023-05-14T12:31:33;17.20;99.90
22114;DHT22;11223;49.968;9.062;2023-05-14T12:33:59;17.30;99.90
22114;DHT22;11223;49.968;9.062;2023-05-14T12:36:24;17.50;99.90
22114;DHT22;11223;49.968;9.062;2023-05-14T12:38:57;17.70;99.90
22114;DHT22;11223;49.968;9.062;2023-05-14T12:41:24;17.80;99.90
22114;DHT22;11223;49.968;9.062;2023-05-14T12:43:49;18.10;99.90
22114;DHT22;11223;49.968;9.062;2023-05-14T12:46:15;18.40;99.90
22114;DHT22;11223;49.968;9.062;2023-05-14T12:48:41;18.70;99.90
22114;DHT22;11223;49.968;9.062;2023-05-14T12:51:06;19.10;99.90
22114;DHT22;11223;49.968;9.062;2023-05-14T12:53:33;19.70;99.90
22114;DHT22;11223;49.968;9.062;2023-05-14T12:55:59;20.00;99.90
22114;DHT22;11223;49.968;9.062;2023-05-14T12:58:25;20.10;99.90
22114;DHT22;11223;49.968;9.062;2023-05-14T13:00:50;20.10;99.90
22114;DHT22;11223;49.968;9.062;2023-05-14T13:03:16;20.20;99.90
22114;DHT22;11223;49.968;9.062;2023-05-14T13:05:42;20.10;99.90
22114;DHT22;11223;49.968;9.062;2023-05-14T13:08:08;20.00;99.90
22114;DHT22;11223;49.968;9.062;2023-05-14T13:10:34;19.90;99.90
22114;DHT22;11223;49.968;9.062;2023-05-14T13:12:59;19.90;99.90
22114;DHT22;11223;49.968;9.062;2023-05-14T13:15:27;20.00;99.90
22114;DHT22;11223;49.968;9.062;2023-05-14T13:17:52;20.30;99.90
22114;DHT22;11223;49.968;9.062;2023-05-14T13:20:18;20.70;99.90
22114;DHT22;11223;49.968;9.062;2023-05-14T13:22:44;21.00;97.60
22114;DHT22;11223;49.968;9.062;2023-05-14T13:25:09;21.10;97.70
22114;DHT22;11223;49.968;9.062;2023-05-14T13:27:35;21.10;96.20
22114;DHT22;11223;49.968;9.062;2023-05-14T13:30:02;21.10;95.70
22114;DHT22;11223;49.968;9.062;2023-05-14T13:32:28;21.10;97.50
22114;DHT22;11223;49.968;9.062;2023-05-14T13:34:54;21.40;98.60
22114;DHT22;11223;49.968;9.062;2023-05-14T13:37:19;21.90;97.10
22114;DHT22;11223;49.968;9.062;2023-05-14T13:39:45;22.40;95.40
22114;DHT22;11223;49.968;9.062;2023-05-14T13:42:10;23.00;95.90
22114;DHT22;11223;49.968;9.062;2023-05-14T13:44:36;23.60;95.60
22114;DHT22;11223;49.968;9.062;2023-05-14T13:47:01;24.10;92.10
22114;DHT22;11223;49.968;9.062;2023-05-14T13:49:28;24.50;93.00
22114;DHT22;11223;49.968;9.062;2023-05-14T13:51:54;24.60;91.60
22114;DHT22;11223;49.968;9.062;2023-05-14T13:54:20;24.60;90.70
22114;DHT22;11223;49.968;9.062;2023-05-14T13:56:46;24.60;90.00
22114;DHT22;11223;49.968;9.062;2023-05-14T13:59:11;24.50;90.20
22114;DHT22;11223;49.968;9.062;2023-05-14T14:01:37;24.40;89.20
22114;DHT22;11223;49.968;9.062;2023-05-14T14:04:03;24.30;86.90
22114;DHT22;11223;49.968;9.062;2023-05-14T14:06:30;24.10;81.50
22114;DHT22;11223;49.968;9.062;2023-05-14T14:08:56;23.80;83.80
22114;DHT22;11223;49.968;9.062;2023-05-14T14:11:22;23.70;85.00
22114;DHT22;11223;49.968;9.062;2023-05-14T14:13:48;23.70;83.80
22114;DHT22;11223;49.968;9.062;2023-05-14T14:16:13;23.60;82.60
22114;DHT22;11223;49.968;9.062;2023-05-14T14:18:40;23.40;81.60
22114;DHT22;11223;49.968;9.062;2023-05-14T14:21:07;23.30;85.90
22114;DHT22;11223;49.968;9.062;2023-05-14T14:23:33;23.30;85.00
22114;DHT22;11223;49.968;9.062;2023-05-14T14:25:59;23.30;86.00
22114;DHT22;11223;49.968;9.062;2023-05-14T14:28:25;23.50;86.10
22114;DHT22;11223;49.968;9.062;2023-05-14T14:30:50;23.70;86.50
22114;DHT22;11223;49.968;9.062;2023-05-14T14:33:16;23.90;82.80
22114;DHT22;11223;49.968;9.062;2023-05-14T14:35:41;23.90;78.90
22114;DHT22;11223;49.968;9.062;2023-05-14T14:38:07;23.80;80.00
22114;DHT22;11223;49.968;9.062;2023-05-14T14:40:33;23.50;80.90
22114;DHT22;11223;49.968;9.062;2023-05-14T14:42:59;23.10;78.20
22114;DHT22;11223;49.968;9.062;2023-05-14T14:45:24;22.80;80.40
22114;DHT22;11223;49.968;9.062;2023-05-14T14:47:50;22.80;79.20
22114;DHT22;11223;49.968;9.062;2023-05-14T14:50:16;22.70;80.50
22114;DHT22;11223;49.968;9.062;2023-05-14T14:52:42;22.50;83.80
22114;DHT22;11223;49.968;9.062;2023-05-14T14:55:09;22.30;86.70
22114;DHT22;11223;49.968;9.062;2023-05-14T14:57:34;22.10;86.80
22114;DHT22;11223;49.968;9.062;2023-05-14T15:00:00;22.10;87.70
22114;DHT22;11223;49.968;9.062;2023-05-14T15:02:25;22.20;88.70
22114;DHT22;11223;49.968;9.062;2023-05-14T15:04:52;22.40;89.70
22114;DHT22;11223;49.968;9.062;2023-05-14T15:07:18;22.50;90.00
22114;DHT22;11223;49.968;9.062;2023-05-14T15:09:44;22.60;88.90
22114;DHT22;11223;49.968;9.062;2023-05-14T15:12:10;22.70;86.80
22114;DHT22;11223;49.968;9.062;2023-05-14T15:14:36;22.70;85.10
22114;DHT22;11223;49.968;9.062;2023-05-14T15:17:02;22.80;87.40
22114;DHT22;11223;49.968;9.062;2023-05-14T15:19:28;22.80;88.00
22114;DHT22;11223;49.968;9.062;2023-05-14T15:21:56;22.90;80.90
22114;DHT22;11223;49.968;9.062;2023-05-14T15:24:21;22.70;79.90
22114;DHT22;11223;49.968;9.062;2023-05-14T15:26:49;22.40;82.80
22114;DHT22;11223;49.968;9.062;2023-05-14T15:29:15;22.00;84.10
22114;DHT22;11223;49.968;9.062;2023-05-14T15:31:40;21.70;89.00
22114;DHT22;11223;49.968;9.062;2023-05-14T15:34:06;21.40;86.50
22114;DHT22;11223;49.968;9.062;2023-05-14T15:36:31;21.20;86.50
22114;DHT22;11223;49.968;9.062;2023-05-14T15:38:58;21.00;89.80
22114;DHT22;11223;49.968;9.062;2023-05-14T15:41:24;20.70;90.80